sensor_id;sensor_type;location;lat;lon;timestamp;P1;durP1;ratioP1;P2;durP2;ratioP2
17852;SDS011;9052;53.494;14.376;2023-04-01T00:01:18;62.40;;;30.37;;
17852;SDS011;9052;53.494;14.376;2023-04-01T00:03:44;62.13;;;30.47;;
17852;SDS011;9052;53.494;14.376;2023-04-01T00:06:12;56.43;;;29.50;;
17852;SDS011;9052;53.494;14.376;2023-04-01T00:08:42;60.20;;;26.77;;
17852;SDS011;9052;53.494;14.376;2023-04-01T00:11:09;60.80;;;28.00;;
17852;SDS011;9052;53.494;14.376;2023-04-01T00:13:36;42.33;;;20.50;;
17852;SDS011;9052;53.494;14.376;2023-04-01T00:16:02;39.23;;;19.97;;
17852;SDS011;9052;53.494;14.376;2023-04-01T00:18:30;37.53;;;18.17;;
17852;SDS011;9052;53.494;14.376;2023-04-01T00:20:56;47.27;;;20.97;;
17852;SDS011;9052;53.494;14.376;2023-04-01T00:23:23;38.03;;;19.13;;
17852;SDS011;9052;53.494;14.376;2023-04-01T00:26:28;50.23;;;19.43;;
17852;SDS011;9052;53.494;14.376;2023-04-01T00:28:54;38.23;;;19.17;;
17852;SDS011;9052;53.494;14.376;2023-04-01T00:31:21;45.17;;;18.20;;
17852;SDS011;9052;53.494;14.376;2023-04-01T00:33:48;42.70;;;20.43;;
17852;SDS011;9052;53.494;14.376;2023-04-01T00:36:16;57.53;;;19.17;;
17852;SDS011;9052;53.494;14.376;2023-04-01T00:39:18;54.40;;;22.27;;
17852;SDS011;9052;53.494;14.376;2023-04-01T00:42:51;51.53;;;18.97;;
17852;SDS011;9052;53.494;14.376;2023-04-01T00:45:23;62.27;;;19.53;;
17852;SDS011;9052;53.494;14.376;2023-04-01T00:47:52;49.77;;;21.10;;
17852;SDS011;9052;53.494;14.376;2023-04-01T00:50:19;55.00;;;22.23;;
17852;SDS011;9052;53.494;14.376;2023-04-01T00:52:46;64.10;;;21.70;;
17852;SDS011;9052;53.494;14.376;2023-04-01T00:55:14;78.13;;;26.67;;
17852;SDS011;9052;53.494;14.376;2023-04-01T00:57:43;70.00;;;25.50;;
17852;SDS011;9052;53.494;14.376;2023-04-01T01:00:11;67.13;;;22.80;;
17852;SDS011;9052;53.494;14.376;2023-04-01T01:02:40;57.40;;;23.03;;
17852;SDS011;9052;53.494;14.376;2023-04-01T01:05:07;61.10;;;23.80;;
17852;SDS011;9052;53.494;14.376;2023-04-01T01:07:35;59.87;;;23.57;;
17852;SDS011;9052;53.494;14.376;2023-04-01T01:10:07;53.43;;;18.90;;
17852;SDS011;9052;53.494;14.376;2023-04-01T01:13:24;74.57;;;25.67;;
17852;SDS011;9052;53.494;14.376;2023-04-01T01:16:28;78.70;;;25.90;;
17852;SDS011;9052;53.494;14.376;2023-04-01T01:20:14;59.27;;;24.67;;
17852;SDS011;9052;53.494;14.376;2023-04-01T01:23:23;76.00;;;23.03;;
17852;SDS011;9052;53.494;14.376;2023-04-01T01:26:06;75.40;;;25.60;;
17852;SDS011;9052;53.494;14.376;2023-04-01T01:29:11;64.87;;;23.90;;
17852;SDS011;9052;53.494;14.376;2023-04-01T01:31:45;60.33;;;23.93;;
17852;SDS011;9052;53.494;14.376;2023-04-01T01:34:18;70.53;;;24.10;;
17852;SDS011;9052;53.494;14.376;2023-04-01T01:36:50;51.57;;;19.57;;
17852;SDS011;9052;53.494;14.376;2023-04-01T01:39:20;48.73;;;19.00;;
17852;SDS011;9052;53.494;14.376;2023-04-01T01:41:51;47.63;;;18.63;;
17852;SDS011;9052;53.494;14.376;2023-04-01T01:44:18;74.10;;;23.00;;
17852;SDS011;9052;53.494;14.376;2023-04-01T01:46:46;67.10;;;22.50;;
17852;SDS011;9052;53.494;14.376;2023-04-01T01:49:14;72.70;;;22.20;;
17852;SDS011;9052;53.494;14.376;2023-04-01T01:51:41;51.10;;;20.37;;
17852;SDS011;9052;53.494;14.376;2023-04-01T01:54:12;49.17;;;19.77;;
17852;SDS011;9052;53.494;14.376;2023-04-01T01:56:39;38.97;;;18.87;;
17852;SDS011;9052;53.494;14.376;2023-04-01T01:59:33;38.57;;;15.57;;
17852;SDS011;9052;53.494;14.376;2023-04-01T02:02:01;32.63;;;14.70;;
17852;SDS011;9052;53.494;14.376;2023-04-01T02:04:33;31.00;;;13.67;;
17852;SDS011;9052;53.494;14.376;2023-04-01T02:07:01;24.47;;;11.77;;
17852;SDS011;9052;53.494;14.376;2023-04-01T02:09:30;32.00;;;13.37;;
17852;SDS011;9052;53.494;14.376;2023-04-01T02:11:59;27.47;;;13.23;;
17852;SDS011;9052;53.494;14.376;2023-04-01T02:14:29;25.17;;;11.73;;
17852;SDS011;9052;53.494;14.376;2023-04-01T02:17:00;19.83;;;10.93;;
17852;SDS011;9052;53.494;14.376;2023-04-01T02:19:30;17.50;;;9.83;;
17852;SDS011;9052;53.494;14.376;2023-04-01T02:22:00;15.23;;;8.07;;
17852;SDS011;9052;53.494;14.376;2023-04-01T02:24:41;18.07;;;10.17;;
17852;SDS011;9052;53.494;14.376;2023-04-01T02:27:40;26.37;;;10.90;;
17852;SDS011;9052;53.494;14.376;2023-04-01T02:30:10;22.13;;;13.27;;
17852;SDS011;9052;53.494;14.376;2023-04-01T02:32:37;35.43;;;13.23;;
17852;SDS011;9052;53.494;14.376;2023-04-01T02:35:05;26.07;;;13.67;;
17852;SDS011;9052;53.494;14.376;2023-04-01T02:37:33;31.07;;;13.77;;
17852;SDS011;9052;53.494;14.376;2023-04-01T02:40:01;32.73;;;15.33;;
17852;SDS011;9052;53.494;14.376;2023-04-01T02:42:29;31.93;;;13.97;;
17852;SDS011;9052;53.494;14.376;2023-04-01T02:44:56;26.10;;;13.03;;
17852;SDS011;9052;53.494;14.376;2023-04-01T02:47:23;32.90;;;15.23;;
17852;SDS011;9052;53.494;14.376;2023-04-01T02:49:49;36.10;;;14.40;;
17852;SDS011;9052;53.494;14.376;2023-04-01T02:52:22;31.10;;;15.67;;
17852;SDS011;9052;53.494;14.376;2023-04-01T02:54:49;36.30;;;17.00;;
17852;SDS011;9052;53.494;14.376;2023-04-01T02:57:17;28.23;;;14.90;;
17852;SDS011;9052;53.494;14.376;2023-04-01T02:59:44;38.23;;;16.23;;
17852;SDS011;9052;53.494;14.376;2023-04-01T03:02:10;31.93;;;15.77;;
17852;SDS011;9052;53.494;14.376;2023-04-01T03:04:37;33.97;;;15.40;;
17852;SDS011;9052;53.494;14.376;2023-04-01T03:07:04;27.83;;;15.57;;
17852;SDS011;9052;53.494;14.376;2023-04-01T03:09:31;28.53;;;15.63;;
17852;SDS011;9052;53.494;14.376;2023-04-01T03:11:57;32.47;;;15.60;;
17852;SDS011;9052;53.494;14.376;2023-04-01T03:14:25;24.20;;;13.73;;
17852;SDS011;9052;53.494;14.376;2023-04-01T03:16:52;26.40;;;13.90;;
17852;SDS011;9052;53.494;14.376;2023-04-01T03:19:19;22.83;;;14.27;;
17852;SDS011;9052;53.494;14.376;2023-04-01T03:21:45;24.47;;;12.83;;
17852;SDS011;9052;53.494;14.376;2023-04-01T03:24:12;19.80;;;12.90;;
17852;SDS011;9052;53.494;14.376;2023-04-01T03:26:39;26.00;;;13.47;;
17852;SDS011;9052;53.494;14.376;2023-04-01T03:29:05;29.90;;;14.80;;
17852;SDS011;9052;53.494;14.376;2023-04-01T03:31:34;34.00;;;14.33;;
17852;SDS011;9052;53.494;14.376;2023-04-01T03:34:00;29.33;;;16.07;;
17852;SDS011;9052;53.494;14.376;2023-04-01T03:36:27;25.83;;;15.77;;
17852;SDS011;9052;53.494;14.376;2023-04-01T03:38:54;24.23;;;14.07;;
17852;SDS011;9052;53.494;14.376;2023-04-01T03:41:20;26.27;;;15.97;;
17852;SDS011;9052;53.494;14.376;2023-04-01T03:43:47;25.27;;;13.90;;
17852;SDS011;9052;53.494;14.376;2023-04-01T03:46:16;27.40;;;14.10;;
17852;SDS011;9052;53.494;14.376;2023-04-01T03:48:45;38.03;;;16.27;;
17852;SDS011;9052;53.494;14.376;2023-04-01T03:51:12;27.30;;;15.50;;
17852;SDS011;9052;53.494;14.376;2023-04-01T03:53:38;28.80;;;15.17;;
17852;SDS011;9052;53.494;14.376;2023-04-01T03:56:05;32.10;;;16.07;;
17852;SDS011;9052;53.494;14.376;2023-04-01T03:58:33;21.40;;;13.80;;
17852;SDS011;9052;53.494;14.376;2023-04-01T04:01:00;35.13;;;17.00;;
17852;SDS011;9052;53.494;14.376;2023-04-01T04:03:27;34.37;;;16.13;;
17852;SDS011;9052;53.494;14.376;2023-04-01T04:05:55;34.67;;;15.50;;
17852;SDS011;9052;53.494;14.376;2023-04-01T04:08:22;25.70;;;14.17;;
17852;SDS011;9052;53.494;14.376;2023-04-01T04:10:54;21.70;;;14.80;;
17852;SDS011;9052;53.494;14.376;2023-04-01T04:13:21;28.57;;;14.00;;
17852;SDS011;9052;53.494;14.376;2023-04-01T04:15:47;31.30;;;13.60;;
17852;SDS011;9052;53.494;14.376;2023-04-01T04:18:14;20.07;;;12.63;;
17852;SDS011;9052;53.494;14.376;2023-04-01T04:20:43;20.83;;;12.20;;
17852;SDS011;9052;53.494;14.376;2023-04-01T04:23:13;20.90;;;12.40;;
17852;SDS011;9052;53.494;14.376;2023-04-01T04:25:40;22.63;;;12.80;;
17852;SDS011;9052;53.494;14.376;2023-04-01T04:28:06;31.43;;;13.20;;
17852;SDS011;9052;53.494;14.376;2023-04-01T04:30:33;17.17;;;12.80;;
17852;SDS011;9052;53.494;14.376;2023-04-01T04:33:00;27.47;;;14.63;;
17852;SDS011;9052;53.494;14.376;2023-04-01T04:35:27;19.57;;;13.20;;
17852;SDS011;9052;53.494;14.376;2023-04-01T04:37:54;28.10;;;15.50;;
17852;SDS011;9052;53.494;14.376;2023-04-01T04:40:22;28.70;;;15.03;;
17852;SDS011;9052;53.494;14.376;2023-04-01T04:42:48;26.00;;;15.30;;
17852;SDS011;9052;53.494;14.376;2023-04-01T04:45:15;26.67;;;13.47;;
17852;SDS011;9052;53.494;14.376;2023-04-01T04:47:42;61.13;;;21.43;;
17852;SDS011;9052;53.494;14.376;2023-04-01T04:50:08;39.83;;;18.40;;
17852;SDS011;9052;53.494;14.376;2023-04-01T04:52:36;43.97;;;19.10;;
17852;SDS011;9052;53.494;14.376;2023-04-01T04:55:03;45.80;;;18.90;;
17852;SDS011;9052;53.494;14.376;2023-04-01T04:57:32;40.67;;;18.53;;
17852;SDS011;9052;53.494;14.376;2023-04-01T04:59:59;44.93;;;17.70;;
17852;SDS011;9052;53.494;14.376;2023-04-01T05:02:25;36.67;;;15.53;;
17852;SDS011;9052;53.494;14.376;2023-04-01T05:04:52;34.30;;;18.17;;
17852;SDS011;9052;53.494;14.376;2023-04-01T05:07:18;33.47;;;18.13;;
17852;SDS011;9052;53.494;14.376;2023-04-01T05:09:45;55.97;;;27.63;;
17852;SDS011;9052;53.494;14.376;2023-04-01T05:12:12;33.73;;;18.70;;
17852;SDS011;9052;53.494;14.376;2023-04-01T05:14:40;35.43;;;16.37;;
17852;SDS011;9052;53.494;14.376;2023-04-01T05:17:08;40.53;;;16.50;;
17852;SDS011;9052;53.494;14.376;2023-04-01T05:19:35;48.83;;;25.17;;
17852;SDS011;9052;53.494;14.376;2023-04-01T05:22:01;55.63;;;23.80;;
17852;SDS011;9052;53.494;14.376;2023-04-01T05:24:28;31.27;;;18.83;;
17852;SDS011;9052;53.494;14.376;2023-04-01T05:26:55;37.07;;;17.17;;
17852;SDS011;9052;53.494;14.376;2023-04-01T05:29:22;43.70;;;19.60;;
17852;SDS011;9052;53.494;14.376;2023-04-01T05:31:50;32.87;;;17.80;;
17852;SDS011;9052;53.494;14.376;2023-04-01T05:34:17;31.97;;;16.47;;
17852;SDS011;9052;53.494;14.376;2023-04-01T05:36:44;47.97;;;19.47;;
17852;SDS011;9052;53.494;14.376;2023-04-01T05:39:11;45.27;;;18.70;;
17852;SDS011;9052;53.494;14.376;2023-04-01T05:41:37;49.60;;;20.37;;
17852;SDS011;9052;53.494;14.376;2023-04-01T05:44:05;52.77;;;22.30;;
17852;SDS011;9052;53.494;14.376;2023-04-01T05:46:32;59.43;;;20.37;;
17852;SDS011;9052;53.494;14.376;2023-04-01T05:49:00;43.10;;;20.33;;
17852;SDS011;9052;53.494;14.376;2023-04-01T05:51:26;48.13;;;17.93;;
17852;SDS011;9052;53.494;14.376;2023-04-01T05:53:55;41.27;;;15.50;;
17852;SDS011;9052;53.494;14.376;2023-04-01T05:56:21;51.33;;;20.23;;
17852;SDS011;9052;53.494;14.376;2023-04-01T05:58:50;66.70;;;23.87;;
17852;SDS011;9052;53.494;14.376;2023-04-01T06:04:05;66.87;;;21.17;;
17852;SDS011;9052;53.494;14.376;2023-04-01T06:06:32;64.23;;;18.93;;
17852;SDS011;9052;53.494;14.376;2023-04-01T06:09:01;67.43;;;20.30;;
17852;SDS011;9052;53.494;14.376;2023-04-01T06:11:37;46.13;;;18.23;;
17852;SDS011;9052;53.494;14.376;2023-04-01T06:14:10;51.03;;;20.67;;
17852;SDS011;9052;53.494;14.376;2023-04-01T06:16:44;46.23;;;19.77;;
17852;SDS011;9052;53.494;14.376;2023-04-01T06:19:24;45.23;;;20.17;;
17852;SDS011;9052;53.494;14.376;2023-04-01T06:22:03;66.63;;;22.50;;
17852;SDS011;9052;53.494;14.376;2023-04-01T06:24:44;36.67;;;20.03;;
17852;SDS011;9052;53.494;14.376;2023-04-01T06:27:32;41.90;;;17.20;;
17852;SDS011;9052;53.494;14.376;2023-04-01T06:30:10;32.50;;;13.73;;
17852;SDS011;9052;53.494;14.376;2023-04-01T06:32:53;42.43;;;16.90;;
17852;SDS011;9052;53.494;14.376;2023-04-01T06:38:34;43.63;;;21.30;;
17852;SDS011;9052;53.494;14.376;2023-04-01T06:41:21;49.87;;;22.67;;
17852;SDS011;9052;53.494;14.376;2023-04-01T06:43:59;41.23;;;17.90;;
17852;SDS011;9052;53.494;14.376;2023-04-01T06:46:36;32.37;;;16.03;;
17852;SDS011;9052;53.494;14.376;2023-04-01T06:49:15;36.23;;;15.43;;
17852;SDS011;9052;53.494;14.376;2023-04-01T06:51:48;42.20;;;13.77;;
17852;SDS011;9052;53.494;14.376;2023-04-01T06:54:21;37.23;;;14.97;;
17852;SDS011;9052;53.494;14.376;2023-04-01T06:56:53;51.10;;;16.47;;
17852;SDS011;9052;53.494;14.376;2023-04-01T06:59:25;34.07;;;14.50;;
17852;SDS011;9052;53.494;14.376;2023-04-01T07:01:53;36.77;;;13.40;;
17852;SDS011;9052;53.494;14.376;2023-04-01T07:04:22;28.70;;;15.37;;
17852;SDS011;9052;53.494;14.376;2023-04-01T07:06:52;27.93;;;13.03;;
17852;SDS011;9052;53.494;14.376;2023-04-01T07:09:22;26.90;;;16.10;;
17852;SDS011;9052;53.494;14.376;2023-04-01T07:11:51;28.33;;;14.17;;
17852;SDS011;9052;53.494;14.376;2023-04-01T07:14:20;20.63;;;13.37;;
17852;SDS011;9052;53.494;14.376;2023-04-01T07:16:50;25.10;;;12.93;;
17852;SDS011;9052;53.494;14.376;2023-04-01T07:19:21;29.57;;;15.40;;
17852;SDS011;9052;53.494;14.376;2023-04-01T07:21:51;24.17;;;13.53;;
17852;SDS011;9052;53.494;14.376;2023-04-01T07:24:24;34.43;;;14.37;;
17852;SDS011;9052;53.494;14.376;2023-04-01T07:26:52;20.73;;;12.47;;
17852;SDS011;9052;53.494;14.376;2023-04-01T07:29:20;32.43;;;16.67;;
17852;SDS011;9052;53.494;14.376;2023-04-01T07:31:51;31.83;;;17.43;;
17852;SDS011;9052;53.494;14.376;2023-04-01T07:34:25;28.73;;;15.30;;
17852;SDS011;9052;53.494;14.376;2023-04-01T07:36:53;28.03;;;14.30;;
17852;SDS011;9052;53.494;14.376;2023-04-01T07:39:30;22.87;;;13.40;;
17852;SDS011;9052;53.494;14.376;2023-04-01T07:42:05;28.83;;;13.93;;
17852;SDS011;9052;53.494;14.376;2023-04-01T07:44:38;23.30;;;14.20;;
17852;SDS011;9052;53.494;14.376;2023-04-01T07:47:15;23.00;;;14.40;;
17852;SDS011;9052;53.494;14.376;2023-04-01T07:49:52;25.53;;;15.77;;
17852;SDS011;9052;53.494;14.376;2023-04-01T07:52:24;25.00;;;15.10;;
17852;SDS011;9052;53.494;14.376;2023-04-01T07:54:57;37.30;;;15.30;;
17852;SDS011;9052;53.494;14.376;2023-04-01T07:57:27;24.87;;;14.70;;
17852;SDS011;9052;53.494;14.376;2023-04-01T07:59:59;30.57;;;14.47;;
17852;SDS011;9052;53.494;14.376;2023-04-01T08:02:33;38.20;;;15.77;;
17852;SDS011;9052;53.494;14.376;2023-04-01T08:05:11;21.93;;;13.37;;
17852;SDS011;9052;53.494;14.376;2023-04-01T08:07:43;21.83;;;14.00;;
17852;SDS011;9052;53.494;14.376;2023-04-01T08:10:14;24.50;;;13.07;;
17852;SDS011;9052;53.494;14.376;2023-04-01T08:12:48;21.00;;;12.30;;
17852;SDS011;9052;53.494;14.376;2023-04-01T08:15:21;25.80;;;13.77;;
17852;SDS011;9052;53.494;14.376;2023-04-01T08:17:54;20.33;;;13.20;;
17852;SDS011;9052;53.494;14.376;2023-04-01T08:20:28;37.77;;;14.27;;
17852;SDS011;9052;53.494;14.376;2023-04-01T08:22:57;25.77;;;14.53;;
17852;SDS011;9052;53.494;14.376;2023-04-01T08:25:28;28.50;;;12.23;;
17852;SDS011;9052;53.494;14.376;2023-04-01T08:27:56;16.63;;;10.10;;
17852;SDS011;9052;53.494;14.376;2023-04-01T08:30:27;35.73;;;14.37;;
17852;SDS011;9052;53.494;14.376;2023-04-01T08:32:58;35.53;;;15.50;;
17852;SDS011;9052;53.494;14.376;2023-04-01T08:35:27;32.50;;;12.40;;
17852;SDS011;9052;53.494;14.376;2023-04-01T08:37:56;20.50;;;11.10;;
17852;SDS011;9052;53.494;14.376;2023-04-01T08:40:36;24.43;;;11.40;;
17852;SDS011;9052;53.494;14.376;2023-04-01T08:43:09;22.63;;;13.20;;
17852;SDS011;9052;53.494;14.376;2023-04-01T08:48:48;15.13;;;9.00;;
17852;SDS011;9052;53.494;14.376;2023-04-01T08:57:25;22.50;;;10.40;;
17852;SDS011;9052;53.494;14.376;2023-04-01T09:00:05;12.40;;;9.60;;
17852;SDS011;9052;53.494;14.376;2023-04-01T09:02:43;11.10;;;9.10;;
17852;SDS011;9052;53.494;14.376;2023-04-01T09:05:23;14.77;;;9.23;;
17852;SDS011;9052;53.494;14.376;2023-04-01T09:07:59;15.03;;;9.80;;
17852;SDS011;9052;53.494;14.376;2023-04-01T09:13:39;15.47;;;11.00;;
17852;SDS011;9052;53.494;14.376;2023-04-01T09:16:19;13.30;;;10.00;;
17852;SDS011;9052;53.494;14.376;2023-04-01T09:24:45;17.73;;;10.27;;
17852;SDS011;9052;53.494;14.376;2023-04-01T09:27:24;17.13;;;14.03;;
17852;SDS011;9052;53.494;14.376;2023-04-01T09:30:10;20.63;;;9.87;;
17852;SDS011;9052;53.494;14.376;2023-04-01T09:32:51;13.63;;;9.57;;
17852;SDS011;9052;53.494;14.376;2023-04-01T09:35:38;12.70;;;9.13;;
17852;SDS011;9052;53.494;14.376;2023-04-01T09:38:11;16.17;;;10.17;;
17852;SDS011;9052;53.494;14.376;2023-04-01T09:40:47;19.53;;;10.03;;
17852;SDS011;9052;53.494;14.376;2023-04-01T09:43:27;12.63;;;10.03;;
17852;SDS011;9052;53.494;14.376;2023-04-01T09:46:06;12.80;;;9.17;;
17852;SDS011;9052;53.494;14.376;2023-04-01T09:51:38;15.03;;;8.27;;
17852;SDS011;9052;53.494;14.376;2023-04-01T09:54:13;11.37;;;8.47;;
17852;SDS011;9052;53.494;14.376;2023-04-01T10:03:13;10.90;;;6.63;;
17852;SDS011;9052;53.494;14.376;2023-04-01T10:12:18;10.40;;;5.80;;
17852;SDS011;9052;53.494;14.376;2023-04-01T10:18:08;11.27;;;5.40;;
17852;SDS011;9052;53.494;14.376;2023-04-01T10:21:02;6.63;;;5.33;;
17852;SDS011;9052;53.494;14.376;2023-04-01T10:24:00;6.30;;;5.00;;
17852;SDS011;9052;53.494;14.376;2023-04-01T10:29:51;12.90;;;5.20;;
17852;SDS011;9052;53.494;14.376;2023-04-01T10:38:36;6.20;;;4.73;;
17852;SDS011;9052;53.494;14.376;2023-04-01T10:47:29;9.63;;;5.30;;
17852;SDS011;9052;53.494;14.376;2023-04-01T10:50:16;6.33;;;5.47;;
17852;SDS011;9052;53.494;14.376;2023-04-01T10:53:00;8.90;;;5.90;;
17852;SDS011;9052;53.494;14.376;2023-04-01T10:55:48;11.60;;;6.30;;
17852;SDS011;9052;53.494;14.376;2023-04-01T11:01:56;9.97;;;5.00;;
17852;SDS011;9052;53.494;14.376;2023-04-01T11:11:11;7.27;;;5.20;;
17852;SDS011;9052;53.494;14.376;2023-04-01T11:14:18;6.10;;;5.50;;
17852;SDS011;9052;53.494;14.376;2023-04-01T11:17:11;13.23;;;5.63;;
17852;SDS011;9052;53.494;14.376;2023-04-01T11:22:54;4.60;;;4.20;;
17852;SDS011;9052;53.494;14.376;2023-04-01T11:25:49;13.20;;;4.50;;
17852;SDS011;9052;53.494;14.376;2023-04-01T11:28:27;4.50;;;3.63;;
17852;SDS011;9052;53.494;14.376;2023-04-01T11:31:11;5.43;;;4.13;;
17852;SDS011;9052;53.494;14.376;2023-04-01T11:37:01;4.17;;;3.57;;
17852;SDS011;9052;53.494;14.376;2023-04-01T11:39:33;8.30;;;3.50;;
17852;SDS011;9052;53.494;14.376;2023-04-01T11:42:11;5.90;;;3.10;;
17852;SDS011;9052;53.494;14.376;2023-04-01T11:44:47;14.07;;;3.63;;
17852;SDS011;9052;53.494;14.376;2023-04-01T11:47:27;8.83;;;3.23;;
17852;SDS011;9052;53.494;14.376;2023-04-01T11:50:04;6.40;;;3.87;;
17852;SDS011;9052;53.494;14.376;2023-04-01T11:52:56;8.10;;;3.30;;
17852;SDS011;9052;53.494;14.376;2023-04-01T11:55:31;4.27;;;2.67;;
17852;SDS011;9052;53.494;14.376;2023-04-01T11:58:14;2.07;;;1.87;;
17852;SDS011;9052;53.494;14.376;2023-04-01T12:00:57;4.53;;;2.40;;
17852;SDS011;9052;53.494;14.376;2023-04-01T12:06:25;6.17;;;2.13;;
17852;SDS011;9052;53.494;14.376;2023-04-01T12:09:01;2.33;;;2.13;;
17852;SDS011;9052;53.494;14.376;2023-04-01T12:11:33;2.60;;;2.37;;
17852;SDS011;9052;53.494;14.376;2023-04-01T12:14:05;2.90;;;2.37;;
17852;SDS011;9052;53.494;14.376;2023-04-01T12:16:41;2.50;;;2.30;;
17852;SDS011;9052;53.494;14.376;2023-04-01T12:19:15;2.67;;;2.47;;
17852;SDS011;9052;53.494;14.376;2023-04-01T12:21:52;5.03;;;2.77;;
17852;SDS011;9052;53.494;14.376;2023-04-01T12:27:20;4.27;;;2.97;;
17852;SDS011;9052;53.494;14.376;2023-04-01T12:33:02;4.13;;;2.23;;
17852;SDS011;9052;53.494;14.376;2023-04-01T12:35:39;4.70;;;2.53;;
17852;SDS011;9052;53.494;14.376;2023-04-01T12:38:15;4.50;;;2.60;;
17852;SDS011;9052;53.494;14.376;2023-04-01T12:43:52;6.83;;;4.60;;
17852;SDS011;9052;53.494;14.376;2023-04-01T12:46:38;8.83;;;3.70;;
17852;SDS011;9052;53.494;14.376;2023-04-01T12:49:17;9.83;;;3.67;;
17852;SDS011;9052;53.494;14.376;2023-04-01T12:51:58;6.77;;;4.77;;
17852;SDS011;9052;53.494;14.376;2023-04-01T12:54:46;4.20;;;3.10;;
17852;SDS011;9052;53.494;14.376;2023-04-01T12:57:31;6.67;;;3.90;;
17852;SDS011;9052;53.494;14.376;2023-04-01T13:03:35;3.00;;;2.70;;
17852;SDS011;9052;53.494;14.376;2023-04-01T13:06:18;3.27;;;3.00;;
17852;SDS011;9052;53.494;14.376;2023-04-01T13:08:51;5.50;;;1.80;;
17852;SDS011;9052;53.494;14.376;2023-04-01T13:11:23;2.57;;;2.40;;
17852;SDS011;9052;53.494;14.376;2023-04-01T13:14:08;2.07;;;1.80;;
17852;SDS011;9052;53.494;14.376;2023-04-01T13:16:45;3.23;;;1.93;;
17852;SDS011;9052;53.494;14.376;2023-04-01T13:19:24;3.30;;;2.03;;
17852;SDS011;9052;53.494;14.376;2023-04-01T13:22:15;5.93;;;1.90;;
17852;SDS011;9052;53.494;14.376;2023-04-01T13:24:59;3.10;;;2.43;;
17852;SDS011;9052;53.494;14.376;2023-04-01T13:28:01;2.30;;;1.33;;
17852;SDS011;9052;53.494;14.376;2023-04-01T13:30:55;5.23;;;2.23;;
17852;SDS011;9052;53.494;14.376;2023-04-01T13:34:06;3.70;;;2.80;;
17852;SDS011;9052;53.494;14.376;2023-04-01T13:36:58;4.27;;;2.53;;
17852;SDS011;9052;53.494;14.376;2023-04-01T13:39:45;3.57;;;2.10;;
17852;SDS011;9052;53.494;14.376;2023-04-01T13:42:27;2.43;;;1.80;;
17852;SDS011;9052;53.494;14.376;2023-04-01T13:45:27;5.27;;;2.37;;
17852;SDS011;9052;53.494;14.376;2023-04-01T13:48:49;2.70;;;2.20;;
17852;SDS011;9052;53.494;14.376;2023-04-01T13:51:35;13.23;;;3.77;;
17852;SDS011;9052;53.494;14.376;2023-04-01T13:57:51;4.90;;;2.00;;
17852;SDS011;9052;53.494;14.376;2023-04-01T14:00:28;13.33;;;5.77;;
17852;SDS011;9052;53.494;14.376;2023-04-01T14:03:12;6.53;;;3.23;;
17852;SDS011;9052;53.494;14.376;2023-04-01T14:05:59;7.13;;;2.70;;
17852;SDS011;9052;53.494;14.376;2023-04-01T14:08:34;5.27;;;3.00;;
17852;SDS011;9052;53.494;14.376;2023-04-01T14:11:11;3.13;;;2.60;;
17852;SDS011;9052;53.494;14.376;2023-04-01T14:13:43;3.60;;;3.30;;
17852;SDS011;9052;53.494;14.376;2023-04-01T14:16:25;5.80;;;3.70;;
17852;SDS011;9052;53.494;14.376;2023-04-01T14:19:22;5.30;;;3.30;;
17852;SDS011;9052;53.494;14.376;2023-04-01T14:21:58;17.83;;;4.97;;
17852;SDS011;9052;53.494;14.376;2023-04-01T14:24:32;10.60;;;6.20;;
17852;SDS011;9052;53.494;14.376;2023-04-01T14:27:19;20.97;;;8.67;;
17852;SDS011;9052;53.494;14.376;2023-04-01T14:29:58;8.00;;;3.70;;
17852;SDS011;9052;53.494;14.376;2023-04-01T14:32:39;9.60;;;2.10;;
17852;SDS011;9052;53.494;14.376;2023-04-01T14:35:17;6.73;;;4.60;;
17852;SDS011;9052;53.494;14.376;2023-04-01T14:37:56;2.60;;;2.50;;
17852;SDS011;9052;53.494;14.376;2023-04-01T14:40:58;7.40;;;3.37;;
17852;SDS011;9052;53.494;14.376;2023-04-01T14:49:32;7.83;;;3.20;;
17852;SDS011;9052;53.494;14.376;2023-04-01T14:52:03;6.93;;;3.03;;
17852;SDS011;9052;53.494;14.376;2023-04-01T14:54:32;3.47;;;3.17;;
17852;SDS011;9052;53.494;14.376;2023-04-01T14:57:09;6.73;;;3.07;;
17852;SDS011;9052;53.494;14.376;2023-04-01T15:05:00;4.30;;;3.40;;
17852;SDS011;9052;53.494;14.376;2023-04-01T15:08:00;19.97;;;5.53;;
17852;SDS011;9052;53.494;14.376;2023-04-01T15:13:15;9.40;;;5.93;;
17852;SDS011;9052;53.494;14.376;2023-04-01T15:15:51;16.77;;;7.80;;
17852;SDS011;9052;53.494;14.376;2023-04-01T15:18:30;10.87;;;4.83;;
17852;SDS011;9052;53.494;14.376;2023-04-01T15:21:06;6.50;;;3.40;;
17852;SDS011;9052;53.494;14.376;2023-04-01T15:23:44;13.43;;;5.13;;
17852;SDS011;9052;53.494;14.376;2023-04-01T15:26:21;12.53;;;5.73;;
17852;SDS011;9052;53.494;14.376;2023-04-01T15:28:59;5.67;;;3.67;;
17852;SDS011;9052;53.494;14.376;2023-04-01T15:31:32;13.53;;;5.33;;
17852;SDS011;9052;53.494;14.376;2023-04-01T15:34:08;9.53;;;4.80;;
17852;SDS011;9052;53.494;14.376;2023-04-01T15:36:46;6.00;;;3.50;;
17852;SDS011;9052;53.494;14.376;2023-04-01T15:39:17;4.80;;;3.20;;
17852;SDS011;9052;53.494;14.376;2023-04-01T15:41:50;11.67;;;3.87;;
17852;SDS011;9052;53.494;14.376;2023-04-01T15:44:34;4.83;;;3.00;;
17852;SDS011;9052;53.494;14.376;2023-04-01T15:47:07;7.07;;;3.73;;
17852;SDS011;9052;53.494;14.376;2023-04-01T15:49:55;5.07;;;3.20;;
17852;SDS011;9052;53.494;14.376;2023-04-01T15:52:29;4.33;;;3.97;;
17852;SDS011;9052;53.494;14.376;2023-04-01T15:55:17;2.50;;;2.30;;
17852;SDS011;9052;53.494;14.376;2023-04-01T15:57:51;6.57;;;3.63;;
17852;SDS011;9052;53.494;14.376;2023-04-01T16:00:28;12.63;;;4.60;;
17852;SDS011;9052;53.494;14.376;2023-04-01T16:03:06;11.60;;;4.70;;
17852;SDS011;9052;53.494;14.376;2023-04-01T16:05:42;6.30;;;4.43;;
17852;SDS011;9052;53.494;14.376;2023-04-01T16:08:29;5.50;;;4.20;;
17852;SDS011;9052;53.494;14.376;2023-04-01T16:11:09;9.27;;;4.70;;
17852;SDS011;9052;53.494;14.376;2023-04-01T16:13:43;7.97;;;3.43;;
17852;SDS011;9052;53.494;14.376;2023-04-01T16:16:18;2.57;;;2.37;;
17852;SDS011;9052;53.494;14.376;2023-04-01T16:19:00;4.17;;;2.27;;
17852;SDS011;9052;53.494;14.376;2023-04-01T16:21:36;2.30;;;2.20;;
17852;SDS011;9052;53.494;14.376;2023-04-01T16:24:10;2.93;;;2.60;;
17852;SDS011;9052;53.494;14.376;2023-04-01T16:26:43;3.97;;;2.87;;
17852;SDS011;9052;53.494;14.376;2023-04-01T16:29:17;8.07;;;3.53;;
17852;SDS011;9052;53.494;14.376;2023-04-01T16:31:50;2.50;;;2.17;;
17852;SDS011;9052;53.494;14.376;2023-04-01T16:37:50;7.67;;;2.63;;
17852;SDS011;9052;53.494;14.376;2023-04-01T16:40:23;4.50;;;2.77;;
17852;SDS011;9052;53.494;14.376;2023-04-01T16:42:53;5.53;;;2.20;;
17852;SDS011;9052;53.494;14.376;2023-04-01T16:45:25;3.03;;;1.90;;
17852;SDS011;9052;53.494;14.376;2023-04-01T16:47:58;3.30;;;1.73;;
17852;SDS011;9052;53.494;14.376;2023-04-01T16:53:47;3.07;;;2.83;;
17852;SDS011;9052;53.494;14.376;2023-04-01T16:57:02;4.23;;;3.00;;
17852;SDS011;9052;53.494;14.376;2023-04-01T17:00:41;15.97;;;3.37;;
17852;SDS011;9052;53.494;14.376;2023-04-01T17:03:40;4.30;;;2.87;;
17852;SDS011;9052;53.494;14.376;2023-04-01T17:06:36;6.50;;;4.17;;
17852;SDS011;9052;53.494;14.376;2023-04-01T17:09:55;19.60;;;4.17;;
17852;SDS011;9052;53.494;14.376;2023-04-01T17:12:38;6.60;;;3.80;;
17852;SDS011;9052;53.494;14.376;2023-04-01T17:15:19;9.00;;;4.00;;